createdAt,value
2018-06-03T00:00:30.359Z,17.50
2018-06-03T00:02:58.548Z,17.40
2018-06-03T00:05:26.862Z,17.40
2018-06-03T00:07:55.061Z,17.40
2018-06-03T00:10:23.255Z,17.30
2018-06-03T00:12:51.552Z,17.30
2018-06-03T00:15:19.753Z,17.20
2018-06-03T00:17:47.945Z,17.10
2018-06-03T00:21:28.841Z,17.10
2018-06-03T00:23:57.056Z,17.20
2018-06-03T00:26:25.536Z,16.90
2018-06-03T00:28:53.750Z,16.90
2018-06-03T00:31:21.986Z,17.00
2018-06-03T00:33:50.915Z,17.10
2018-06-03T00:36:30.451Z,17.00
2018-06-03T00:38:58.895Z,17.10
2018-06-03T00:41:27.258Z,17.00
2018-06-03T00:43:55.894Z,16.90
2018-06-03T00:46:24.175Z,17.20
2018-06-03T00:48:52.354Z,17.30
2018-06-03T00:58:50.160Z,16.80
2018-06-03T01:01:18.371Z,16.60
2018-06-03T01:03:46.549Z,16.50
2018-06-03T01:06:14.776Z,16.50
2018-06-03T01:08:42.987Z,16.50
2018-06-03T01:11:11.170Z,16.50
2018-06-03T01:13:39.370Z,16.60
2018-06-03T01:16:07.690Z,16.60
2018-06-03T01:18:35.904Z,16.70
2018-06-03T01:21:04.100Z,16.70
2018-06-03T01:23:32.573Z,16.70
2018-06-03T01:26:00.800Z,16.80
2018-06-03T01:30:56.963Z,16.40
2018-06-03T01:33:26.027Z,16.40
2018-06-03T01:38:22.165Z,16.60
2018-06-03T01:43:18.478Z,16.70
2018-06-03T01:45:46.680Z,16.40
2018-06-03T01:48:15.262Z,16.50
2018-06-03T01:50:43.496Z,16.50
2018-06-03T01:53:11.966Z,16.10
2018-06-03T01:55:40.183Z,16.10
2018-06-03T01:58:08.400Z,16.10
2018-06-03T02:00:36.580Z,16.30
2018-06-03T02:03:04.929Z,16.30
2018-06-03T02:08:01.086Z,16.10
2018-06-03T02:10:29.262Z,15.90
2018-06-03T02:12:57.778Z,15.90
2018-06-03T02:15:25.971Z,15.90
2018-06-03T02:17:54.162Z,15.90
2018-06-03T02:20:22.360Z,15.90
2018-06-03T02:22:50.925Z,15.60
2018-06-03T02:25:19.455Z,15.60
2018-06-03T02:27:47.655Z,15.50
2018-06-03T02:30:15.846Z,15.50
2018-06-03T02:32:44.094Z,15.60
2018-06-03T02:35:12.280Z,15.50
2018-06-03T02:37:40.464Z,15.50
2018-06-03T02:40:08.851Z,15.50
2018-06-03T02:42:37.039Z,15.60
2018-06-03T02:45:05.499Z,15.60
2018-06-03T02:47:33.674Z,15.70
2018-06-03T02:50:01.922Z,15.80
2018-06-03T02:52:30.119Z,15.90
2018-06-03T02:54:58.293Z,15.90
2018-06-03T02:57:26.780Z,15.80
2018-06-03T02:59:54.951Z,15.70
2018-06-03T03:02:23.649Z,15.80
2018-06-03T03:07:19.853Z,15.60
2018-06-03T03:09:48.049Z,15.50
2018-06-03T03:12:16.424Z,15.40
2018-06-03T03:14:44.621Z,15.20
2018-06-03T03:19:41.042Z,15.10
2018-06-03T03:22:09.252Z,15.20
2018-06-03T03:24:37.449Z,15.20
2018-06-03T03:27:05.688Z,15.30
2018-06-03T03:29:33.901Z,15.10
2018-06-03T03:32:02.113Z,15.10
2018-06-03T03:34:30.302Z,15.00
2018-06-03T03:36:58.975Z,15.00
2018-06-03T03:39:27.195Z,15.00
2018-06-03T03:41:55.359Z,15.00
2018-06-03T03:44:23.547Z,15.10
2018-06-03T03:46:51.989Z,15.20
2018-06-03T03:49:20.215Z,15.20
2018-06-03T03:51:48.652Z,15.30
2018-06-03T03:56:44.783Z,15.40
2018-06-03T03:59:12.971Z,15.50
2018-06-03T04:01:41.164Z,15.60
2018-06-03T04:04:09.389Z,15.70
2018-06-03T04:06:37.939Z,15.70
2018-06-03T04:09:06.691Z,15.70
2018-06-03T04:14:02.833Z,15.50
2018-06-03T04:16:31.318Z,15.40
2018-06-03T04:18:59.600Z,15.40
2018-06-03T04:21:27.782Z,15.30
2018-06-03T04:23:56.106Z,15.40
2018-06-03T04:26:24.299Z,15.40
2018-06-03T04:28:52.486Z,15.30
2018-06-03T04:33:48.858Z,15.30
2018-06-03T04:36:17.326Z,15.30
2018-06-03T04:38:45.547Z,15.30
2018-06-03T04:41:13.889Z,15.40
2018-06-03T04:43:42.080Z,15.40
2018-06-03T04:46:10.299Z,15.40
2018-06-03T04:48:38.768Z,15.40
2018-06-03T04:51:07.275Z,15.50
2018-06-03T04:56:03.405Z,15.90
2018-06-03T04:58:32.314Z,16.10
2018-06-03T05:01:00.799Z,16.30
2018-06-03T05:03:29.221Z,16.40
2018-06-03T05:05:57.753Z,16.60
2018-06-03T05:08:26.294Z,17.00
2018-06-03T05:10:54.756Z,17.10
2018-06-03T05:13:23.565Z,17.30
2018-06-03T05:15:52.014Z,17.50
2018-06-03T05:18:20.285Z,17.80
2018-06-03T05:20:48.894Z,18.10
2018-06-03T05:23:17.071Z,18.40
2018-06-03T05:25:45.280Z,18.50
2018-06-03T05:28:14.236Z,18.80
2018-06-03T05:30:42.613Z,19.00
2018-06-03T05:33:10.787Z,19.20
2018-06-03T05:35:38.979Z,19.10
2018-06-03T05:38:07.459Z,19.30
2018-06-03T05:40:35.686Z,19.40
2018-06-03T05:43:03.872Z,19.60
2018-06-03T05:45:32.302Z,19.80
2018-06-03T05:48:00.721Z,20.00
2018-06-03T05:50:28.927Z,20.20
2018-06-03T05:52:57.137Z,20.30
2018-06-03T05:55:25.336Z,20.40
2018-06-03T05:57:53.532Z,20.50
2018-06-03T06:00:21.733Z,20.50
2018-06-03T06:02:50.033Z,20.70
2018-06-03T06:05:18.248Z,21.00
2018-06-03T06:07:46.442Z,21.20
2018-06-03T06:10:15.573Z,22.00
2018-06-03T06:15:11.708Z,21.80
2018-06-03T06:17:40.004Z,21.90
2018-06-03T06:20:08.255Z,21.80
2018-06-03T06:22:36.407Z,21.80
2018-06-03T06:25:04.726Z,22.00
2018-06-03T06:30:00.894Z,22.30
2018-06-03T06:32:29.354Z,22.50
2018-06-03T06:37:25.551Z,22.70
2018-06-03T06:39:54.130Z,22.90
2018-06-03T06:42:22.576Z,23.00
2018-06-03T06:44:51.037Z,23.10
2018-06-03T06:47:19.390Z,23.40
2018-06-03T06:49:47.579Z,23.60
2018-06-03T06:52:15.787Z,23.60
2018-06-03T06:54:44.048Z,23.70
2018-06-03T06:57:12.579Z,23.80
2018-06-03T06:59:40.778Z,24.00
2018-06-03T07:02:08.967Z,24.10
2018-06-03T07:07:05.742Z,24.20
2018-06-03T07:09:33.957Z,24.40
2018-06-03T07:12:02.166Z,24.40
2018-06-03T07:14:30.401Z,24.90
2018-06-03T07:19:27.207Z,24.80
2018-06-03T07:21:56.065Z,24.80
2018-06-03T07:24:24.275Z,24.90
2018-06-03T07:26:52.508Z,25.00
2018-06-03T07:29:20.708Z,25.00
2018-06-03T07:31:48.899Z,25.00
2018-06-03T07:34:17.575Z,25.20
2018-06-03T07:36:45.788Z,25.30
2018-06-03T07:39:13.967Z,25.40
2018-06-03T07:41:42.415Z,25.50
2018-06-03T07:44:10.642Z,25.60
2018-06-03T07:46:38.830Z,25.60
2018-06-03T07:49:07.032Z,25.70
2018-06-03T07:51:35.287Z,25.90
2018-06-03T07:54:03.488Z,26.30
2018-06-03T07:58:59.651Z,26.50
2018-06-03T08:01:27.851Z,26.40
2018-06-03T08:03:56.029Z,26.20
2018-06-03T08:06:24.239Z,26.30
2018-06-03T08:08:52.513Z,26.30
2018-06-03T08:11:21.144Z,26.70
2018-06-03T08:13:49.388Z,26.90
2018-06-03T08:16:17.548Z,27.10
2018-06-03T08:18:45.995Z,27.20
2018-06-03T08:21:14.186Z,27.20
2018-06-03T08:23:42.382Z,27.20
2018-06-03T08:31:07.177Z,27.30
2018-06-03T08:33:35.387Z,27.40
2018-06-03T08:36:03.584Z,27.70
2018-06-03T08:38:31.879Z,27.60
2018-06-03T08:41:00.103Z,27.60
2018-06-03T08:43:28.406Z,27.30
2018-06-03T08:45:56.586Z,27.50
2018-06-03T08:48:24.852Z,27.80
2018-06-03T08:50:53.184Z,27.70
2018-06-03T08:53:21.403Z,27.70
2018-06-03T08:55:49.610Z,27.90
2018-06-03T08:58:18.150Z,27.90
2018-06-03T09:00:46.335Z,28.00
2018-06-03T09:03:14.528Z,28.20
2018-06-03T09:05:43.171Z,28.30
2018-06-03T09:10:39.293Z,28.70
2018-06-03T09:13:07.587Z,28.70
2018-06-03T09:15:35.773Z,28.80
2018-06-03T09:18:03.967Z,28.60
2018-06-03T09:20:32.208Z,28.60
2018-06-03T09:25:28.385Z,28.90
2018-06-03T09:27:56.689Z,29.00
2018-06-03T09:30:24.946Z,28.60
2018-06-03T09:32:53.147Z,28.80
2018-06-03T09:35:21.357Z,28.90
2018-06-03T09:37:49.563Z,29.10
2018-06-03T09:40:18.162Z,29.20
2018-06-03T09:42:46.378Z,29.30
2018-06-03T09:45:14.575Z,29.40
2018-06-03T09:47:42.859Z,29.50
2018-06-03T09:50:11.043Z,29.50
2018-06-03T09:52:39.264Z,29.30
2018-06-03T09:55:07.556Z,29.30
2018-06-03T09:57:35.844Z,29.50
2018-06-03T10:00:04.017Z,29.50
2018-06-03T10:02:32.260Z,29.30
2018-06-03T10:05:01.007Z,29.40
2018-06-03T10:07:29.194Z,29.30
2018-06-03T10:09:57.384Z,29.30
2018-06-03T10:12:25.562Z,29.70
2018-06-03T10:14:53.780Z,29.60
2018-06-03T10:17:21.988Z,29.40
2018-06-03T10:19:50.179Z,25.80
2018-06-03T10:22:18.385Z,29.40
2018-06-03T10:24:46.598Z,29.40
2018-06-03T10:27:14.849Z,29.50
2018-06-03T10:29:43.043Z,29.60
2018-06-03T10:32:11.251Z,29.50
2018-06-03T10:34:39.717Z,29.40
2018-06-03T10:37:07.900Z,29.50
2018-06-03T10:39:36.112Z,29.60
2018-06-03T10:42:04.304Z,29.50
2018-06-03T10:44:32.486Z,29.60
2018-06-03T10:47:00.705Z,29.50
2018-06-03T10:49:28.894Z,29.50
2018-06-03T10:51:57.088Z,29.70
2018-06-03T10:54:25.293Z,29.50
2018-06-03T10:56:53.468Z,29.40
2018-06-03T10:59:21.674Z,29.50
2018-06-03T11:01:49.872Z,29.30
2018-06-03T11:04:18.085Z,29.00
2018-06-03T11:06:46.267Z,28.90
2018-06-03T11:09:14.463Z,29.10
2018-06-03T11:11:42.646Z,29.20
2018-06-03T11:14:10.828Z,29.50
2018-06-03T11:16:39.077Z,29.70
2018-06-03T11:19:07.376Z,30.00
2018-06-03T11:21:35.636Z,29.40
2018-06-03T11:24:03.831Z,29.30
2018-06-03T11:26:32.056Z,29.30
2018-06-03T11:29:00.233Z,28.80
2018-06-03T11:32:13.941Z,29.30
2018-06-03T11:37:34.847Z,28.90
2018-06-03T11:40:23.506Z,28.50
2018-06-03T11:48:49.276Z,28.90
2018-06-03T11:51:57.575Z,29.20
2018-06-03T11:57:16.321Z,28.90
2018-06-03T12:03:21.434Z,29.00
2018-06-03T12:08:45.989Z,29.40
2018-06-03T12:11:38.436Z,29.40
2018-06-03T12:14:44.964Z,29.30
2018-06-03T21:43:01.729Z,21.30
2018-06-03T21:45:31.039Z,21.50
2018-06-03T21:48:02.012Z,21.50
2018-06-03T21:50:32.205Z,21.50
2018-06-03T21:53:02.228Z,21.40
2018-06-03T21:55:34.304Z,21.40
2018-06-03T22:00:34.010Z,21.30
2018-06-03T22:03:02.711Z,21.20
2018-06-03T22:05:31.258Z,20.90
2018-06-03T22:07:59.865Z,20.80
2018-06-03T22:10:28.338Z,20.60
2018-06-03T22:12:57.424Z,20.40
2018-06-03T22:15:26.533Z,20.50
2018-06-03T22:17:55.346Z,20.50
2018-06-03T22:23:16.198Z,20.50
2018-06-03T22:31:07.357Z,20.50
2018-06-03T22:36:39.684Z,20.50
2018-06-03T22:39:27.137Z,20.40
2018-06-03T22:42:10.333Z,20.20
2018-06-03T22:50:38.078Z,19.90
2018-06-03T22:53:12.583Z,19.90
2018-06-03T22:55:54.056Z,20.10
2018-06-03T23:01:17.630Z,20.00
2018-06-03T23:12:36.339Z,19.50
2018-06-03T23:15:15.708Z,19.40
2018-06-03T23:23:08.560Z,19.50
2018-06-03T23:28:20.196Z,19.60
2018-06-03T23:31:07.505Z,19.40
2018-06-03T23:42:00.740Z,18.60
2018-06-03T23:55:42.043Z,18.60
2018-06-03T23:58:24.147Z,18.70
